Bacup, United Kingdom
Current Conditions -  °F | °C
As of 12:20 AM on Friday 19 Dec 2014 (Local Time) from EGCC Reporting Station
Light Rain Light Rain  
Wind Chill: 43°   Ceiling: 2700
Heat Index: 48°   Visibility: 5mi
Dew Point: 46°   Wind: 12mph
Humidity: 93%   Direction: 280°W
Pressure: 29.68"   Gusts: NA
Location:  53.7°N, 2.2°W
Report Text: EGCC 190020Z AUTO 28010KT 8000 -RA FEW008/// SCT012/// BKN027/// //////CB 09/08 Q1005 RERA
Loading
Personal Weather Stations






























Interactive Weather Map New forecast layout! Learn more

10-Day Weather Forecast

Advertisements
Track Severe Weather on mobile